Columbia Metropolitan Airport
KCAE : now visible

Airfield :











YOU CAN JOIN US ON...

 
LOGIN :

Register | Disclaimer

   EN    FR    IT 

 









Legend :    VFR   Marginal VFR   IFR   Intensive IFR   Very Intensive IFR
Visi :
Ceiling :
>= 8 km
>= 3000ft
5 to 8 km
1000 to 3000 ft
1500m to 5 km
500 to 1000 ft
800 to 1500m
200 to 500 ft
< 800m
< 200 ft
Symbols :   Thunderstorms  Fog  Heavy snow  Heavy precipitations  Wind > 20 kt






- Airport Elevation : 236 ft
- IATA code : CAE


KCAE - Columbia Metropolitan

CURRENT METAR :
  • 280456Z 00000KT 10SM BKN033 21/20 A3000 RMK AO2 SLP158 T02110200 402500211

EXPIRED METARs :
  • 280356Z 15003KT 10SM CLR 22/19 A3000 RMK AO2 SLP156 T02170194
  • 280256Z 29004KT 10SM FEW030 OVC038 22/20 A2999 RMK AO2 SLP153 T02220200 53016

TAF KCAE
Valid from the 28 at 03:00 until the 29 at 00:00 UTC


280243Z 2803/2824 31006KT P6SM SCT025 BKN035
TEMPO 2804/2808 SCT008 BKN025 OVC035
FM280800 VRB03KT 6SM BR OVC008
FM281500 19005KT P6SM BKN025
FM282000 20007KT P6SM VCSH BKN040
KZJX FIR / North America



MET'MAP, your aeronautical weather chart ! - Copyright ORBIFLY December 2007 - Disclaimer

ORBIFLY MET'MAP TEAM :

Programming & Development : Alexandra Zaïnal
Concept & original design : Baudouin d'Aumeries
Assistance for programming : Marc-Olivier Méhu
Technical & hardware support : Manuel Goepfert

Contact : metmap@orbifly.com




SOURCES & CREDITS :

   NOAA       Earth
Advisory